Time;durP1;ratioP1;P1;durP2;ratioP2;P2;SDS_P1;SDS_P2;PMS_P1;PMS_P2;Temp;Humidity;BMP_temperature;BMP_pressure;BME280_temperature;BME280_humidity;BME280_pressure;Samples;Min_cycle;Max_cycle;Signal;HPM_P1;HPM_P2
2022/12/22 03:28:07;;;;;;;2.60;1.60;;;;;;;8.38;100.00;99066.25;4999032;28;20248;-64
2022/12/22 03:30:33;;;;;;;2.57;1.63;;;;;;;8.55;100.00;99062.69;5001683;28;20310;-64
2022/12/22 03:32:59;;;;;;;4.17;1.73;;;;;;;8.62;100.00;99060.53;5010120;28;20765;-63
2022/12/22 03:35:25;;;;;;;1.50;1.40;;;;;;;8.70;100.00;99058.31;5011290;28;20186;-65
2022/12/22 03:37:50;;;;;;;2.93;1.20;;;;;;;8.63;100.00;99052.75;5009496;28;20253;-67
2022/12/22 03:40:15;;;;;;;3.23;1.17;;;;;;;8.74;100.00;99043.56;5002399;28;20630;-64
2022/12/22 03:48:12;;;;;;;4.07;1.60;;;;;;;8.76;100.00;99047.69;5010237;28;20589;-63
2022/12/22 03:50:37;;;;;;;3.33;1.53;;;;;;;8.83;100.00;99042.97;5005500;28;20280;-64
2022/12/22 03:53:03;;;;;;;4.77;1.60;;;;;;;8.72;100.00;99038.56;5013556;28;20695;-64
2022/12/22 03:55:28;;;;;;;4.20;1.37;;;;;;;8.78;100.00;99029.63;5009786;28;20187;-64
2022/12/22 03:57:53;;;;;;;4.50;1.80;;;;;;;8.75;100.00;99035.78;5011309;28;20183;-64
2022/12/22 04:00:19;;;;;;;7.37;1.70;;;;;;;8.91;100.00;99027.13;4996364;28;20182;-63
2022/12/22 04:02:44;;;;;;;4.17;1.40;;;;;;;8.90;100.00;99030.59;5027284;28;20630;-63
2022/12/22 04:05:10;;;;;;;5.03;1.43;;;;;;;8.91;100.00;99021.97;5002031;28;20638;-63
2022/12/22 04:07:35;;;;;;;2.47;1.50;;;;;;;8.87;100.00;99019.59;5012703;28;20181;-65
2022/12/22 04:12:53;;;;;;;2.60;1.20;;;;;;;9.07;100.00;99016.66;5002948;28;20234;-64
2022/12/22 04:15:37;;;;;;;3.93;1.40;;;;;;;8.98;100.00;99013.78;5005555;28;20201;-64
2022/12/22 04:18:02;;;;;;;4.17;1.30;;;;;;;8.98;100.00;99010.38;5021976;28;20179;-64
2022/12/22 04:20:27;;;;;;;1.73;1.20;;;;;;;8.98;100.00;99000.97;5007761;28;20719;-64
2022/12/22 04:22:56;;;;;;;3.07;1.10;;;;;;;8.85;100.00;99002.69;5024790;28;20289;-63
2022/12/22 04:25:23;;;;;;;2.13;1.30;;;;;;;8.90;100.00;98992.13;5013544;28;20190;-63
2022/12/22 04:27:48;;;;;;;3.00;1.60;;;;;;;8.92;100.00;98993.66;5013551;28;20564;-63
2022/12/22 04:30:14;;;;;;;6.07;1.57;;;;;;;8.92;100.00;98987.69;5005337;28;20188;-63
2022/12/22 04:32:40;;;;;;;3.03;1.40;;;;;;;8.94;100.00;98996.13;5007236;28;20674;-63
2022/12/22 04:35:07;;;;;;;2.00;1.40;;;;;;;8.99;100.00;98989.78;5005677;28;20190;-63
2022/12/22 04:37:32;;;;;;;3.50;1.40;;;;;;;8.95;100.00;98992.63;5012967;28;20182;-63
2022/12/22 04:39:58;;;;;;;3.47;1.53;;;;;;;9.13;100.00;98994.00;5013800;28;20174;-64
2022/12/22 04:42:23;;;;;;;1.23;1.10;;;;;;;9.02;100.00;98986.19;5017200;28;20684;-64
2022/12/22 04:44:49;;;;;;;3.03;1.30;;;;;;;8.91;100.00;98983.50;5013926;28;20186;-63
2022/12/22 04:47:14;;;;;;;4.03;1.30;;;;;;;8.97;100.00;98983.91;5011808;28;20206;-64
2022/12/22 04:49:39;;;;;;;5.03;1.40;;;;;;;9.12;100.00;98978.72;5014125;28;20213;-64
2022/12/22 04:52:05;;;;;;;2.53;1.50;;;;;;;9.09;100.00;98974.59;5018346;28;20296;-63
2022/12/22 04:54:30;;;;;;;2.33;1.30;;;;;;;8.99;100.00;98973.56;5006341;28;20554;-64
2022/12/22 04:56:55;;;;;;;3.13;1.50;;;;;;;8.99;100.00;98973.56;4992424;28;20257;-64
2022/12/22 04:59:21;;;;;;;2.77;1.33;;;;;;;9.02;100.00;98973.38;5005888;28;20265;-64
2022/12/22 05:01:46;;;;;;;6.77;1.70;;;;;;;8.88;100.00;98982.78;5016863;28;20236;-64
2022/12/22 05:04:14;;;;;;;3.43;1.20;;;;;;;8.95;100.00;98967.00;5015886;28;20209;-64
2022/12/22 05:06:39;;;;;;;4.13;1.47;;;;;;;8.93;100.00;98966.25;5008296;28;20188;-63
2022/12/22 05:09:04;;;;;;;4.07;1.43;;;;;;;8.84;100.00;98963.41;5005162;28;20234;-63
2022/12/22 05:11:30;;;;;;;3.67;1.30;;;;;;;8.82;100.00;98959.25;5014467;28;20601;-63
2022/12/22 05:13:55;;;;;;;6.57;1.70;;;;;;;8.81;100.00;98953.31;5017213;28;20186;-63
2022/12/22 05:16:20;;;;;;;1.57;1.00;;;;;;;8.86;100.00;98947.91;5012662;28;20497;-63
2022/12/22 05:18:45;;;;;;;2.37;1.17;;;;;;;8.80;100.00;98948.31;5013534;28;20237;-63
2022/12/22 05:21:13;;;;;;;4.13;1.43;;;;;;;8.88;100.00;98941.75;5007358;28;20301;-64
2022/12/22 05:23:39;;;;;;;2.03;1.10;;;;;;;8.86;100.00;98943.59;5005503;28;20186;-64
2022/12/22 05:26:05;;;;;;;1.97;1.00;;;;;;;8.90;100.00;98941.63;5012385;28;20182;-63
2022/12/22 05:28:31;;;;;;;2.43;1.37;;;;;;;8.92;100.00;98939.81;5008464;28;20284;-63
2022/12/22 05:30:56;;;;;;;5.97;1.50;;;;;;;9.04;100.00;98943.28;5000044;28;20226;-64
2022/12/22 05:33:22;;;;;;;1.50;1.40;;;;;;;8.99;100.00;98948.75;5002481;28;20211;-64
2022/12/22 05:35:47;;;;;;;1.00;0.90;;;;;;;9.03;100.00;98941.66;5011696;28;20202;-64
2022/12/22 05:38:12;;;;;;;4.27;1.13;;;;;;;9.11;100.00;98934.25;5012473;28;20325;-64
2022/12/22 05:40:37;;;;;;;6.53;1.13;;;;;;;9.17;100.00;98945.88;5007365;28;20220;-64
2022/12/22 05:43:03;;;;;;;1.40;0.80;;;;;;;9.10;100.00;98936.94;5023622;28;20264;-65
2022/12/22 05:45:28;;;;;;;1.10;1.00;;;;;;;9.16;100.00;98932.19;4991731;28;20177;-64
2022/12/22 05:47:54;;;;;;;1.03;0.80;;;;;;;9.14;100.00;98938.38;5004775;28;20187;-63
2022/12/22 05:50:23;;;;;;;2.57;1.10;;;;;;;9.30;100.00;98925.31;5004631;28;20236;-64
2022/12/22 05:52:49;;;;;;;1.03;0.60;;;;;;;9.35;100.00;98926.66;5025205;28;20202;-63
2022/12/22 05:55:15;;;;;;;3.07;0.80;;;;;;;9.34;100.00;98919.88;5012766;28;20631;-64
2022/12/22 05:57:41;;;;;;;0.97;0.90;;;;;;;9.41;100.00;98919.47;5007793;28;20210;-64
2022/12/22 06:00:09;;;;;;;1.23;0.80;;;;;;;9.49;100.00;98922.34;5000623;28;20737;-64
2022/12/22 06:02:35;;;;;;;1.03;0.83;;;;;;;9.48;100.00;98918.13;5027113;28;20181;-64
2022/12/22 06:05:00;;;;;;;3.80;0.93;;;;;;;9.54;100.00;98920.25;5012769;28;20179;-64
2022/12/22 06:07:25;;;;;;;3.63;0.80;;;;;;;9.51;100.00;98915.31;5012290;28;20502;-64
2022/12/22 06:09:51;;;;;;;2.77;0.70;;;;;;;9.51;100.00;98920.47;5012434;28;20226;-64
2022/12/22 06:12:16;;;;;;;4.00;0.90;;;;;;;9.56;100.00;98918.38;5017548;28;20310;-63
2022/12/22 06:14:41;;;;;;;2.57;1.30;;;;;;;9.73;100.00;98908.72;5012338;28;20516;-63
2022/12/22 06:17:08;;;;;;;2.57;1.10;;;;;;;9.66;100.00;98909.13;5012180;28;20265;-63
2022/12/22 06:19:33;;;;;;;2.77;1.00;;;;;;;9.65;100.00;98914.34;5007989;28;20175;-63
2022/12/22 06:21:58;;;;;;;2.03;0.90;;;;;;;9.74;100.00;98911.16;5009348;28;20229;-64
2022/12/22 06:24:24;;;;;;;3.00;1.13;;;;;;;9.77;100.00;98905.81;5012692;28;20183;-63
2022/12/22 06:26:49;;;;;;;2.00;1.30;;;;;;;9.74;100.00;98908.59;5007417;28;20175;-64
2022/12/22 06:29:14;;;;;;;3.57;1.40;;;;;;;9.77;100.00;98907.56;5010734;28;20179;-64
2022/12/22 06:31:40;;;;;;;2.20;1.00;;;;;;;9.74;100.00;98907.78;5013865;28;20226;-64
2022/12/22 06:34:05;;;;;;;2.63;0.97;;;;;;;9.65;100.00;98906.66;5013205;28;20199;-64
2022/12/22 06:36:30;;;;;;;1.60;1.07;;;;;;;9.69;100.00;98908.91;4968463;28;20213;-63
2022/12/22 06:38:56;;;;;;;2.37;1.10;;;;;;;9.56;100.00;98920.16;5003214;28;20198;-63
2022/12/22 06:44:05;;;;;;;1.37;1.20;;;;;;;9.55;100.00;98913.38;5014313;28;20244;-63
2022/12/22 06:46:36;;;;;;;2.47;1.10;;;;;;;9.66;100.00;98916.00;5011342;28;20186;-75
2022/12/22 06:49:02;;;;;;;3.03;1.43;;;;;;;9.78;100.00;98924.63;5012247;28;20182;-63
2022/12/22 06:51:27;;;;;;;3.40;1.17;;;;;;;9.68;100.00;98914.97;5012821;28;20751;-65
2022/12/22 06:53:52;;;;;;;3.90;1.60;;;;;;;9.71;100.00;98913.13;5016088;28;20243;-63
2022/12/22 06:56:18;;;;;;;5.00;2.40;;;;;;;9.65;100.00;98907.50;5011462;28;20205;-63
2022/12/22 06:58:43;;;;;;;4.30;2.10;;;;;;;9.78;100.00;98915.16;5012200;28;20213;-63
2022/12/22 07:01:08;;;;;;;5.37;2.20;;;;;;;9.78;100.00;98916.91;5010345;28;20376;-63
2022/12/22 07:03:33;;;;;;;1.93;1.73;;;;;;;9.88;100.00;98920.47;5011608;28;20174;-63
2022/12/22 07:05:59;;;;;;;4.97;2.93;;;;;;;9.78;100.00;98928.00;5011665;28;20187;-64
2022/12/22 07:08:24;;;;;;;6.90;2.60;;;;;;;9.76;100.00;98936.72;5012094;28;20230;-63
2022/12/22 07:10:58;;;;;;;6.87;3.17;;;;;;;9.78;100.00;98927.19;5004570;28;20744;-63
2022/12/22 07:13:27;;;;;;;4.73;2.77;;;;;;;9.84;100.00;98940.41;5007498;28;20194;-63
2022/12/22 07:15:53;;;;;;;9.87;5.10;;;;;;;9.82;100.00;98932.00;5004391;28;20358;-63
2022/12/22 07:18:19;;;;;;;7.67;3.23;;;;;;;9.80;100.00;98930.47;5010836;28;20193;-63
2022/12/22 07:20:44;;;;;;;6.30;1.80;;;;;;;9.81;100.00;98921.81;5007199;28;20225;-63
2022/12/22 07:23:10;;;;;;;3.20;1.73;;;;;;;9.83;100.00;98925.91;5021946;28;20210;-63
2022/12/22 07:25:35;;;;;;;4.83;2.27;;;;;;;9.74;100.00;98926.56;5011659;28;20179;-64
2022/12/22 07:28:01;;;;;;;1.97;1.20;;;;;;;9.93;100.00;98933.78;5011275;28;20552;-64
2022/12/22 07:30:26;;;;;;;5.63;1.77;;;;;;;9.89;100.00;98926.44;5004569;28;20233;-63
2022/12/22 07:32:52;;;;;;;4.10;1.57;;;;;;;9.91;100.00;98927.97;5024536;28;20565;-63
2022/12/22 07:35:17;;;;;;;5.27;1.70;;;;;;;9.96;100.00;98923.31;5015571;28;20237;-64
2022/12/22 07:37:42;;;;;;;5.83;2.30;;;;;;;10.03;100.00;98928.81;5015288;28;20510;-63
2022/12/22 07:40:09;;;;;;;4.43;1.80;;;;;;;10.19;100.00;98933.69;5005281;28;20179;-63
2022/12/22 07:42:43;;;;;;;4.13;1.60;;;;;;;10.24;100.00;98931.63;5014215;28;20183;-63
2022/12/22 07:45:16;;;;;;;2.77;1.30;;;;;;;10.11;100.00;98921.41;5015586;28;20186;-64
2022/12/22 07:47:43;;;;;;;2.30;0.93;;;;;;;10.12;100.00;98919.66;5015299;28;20206;-65
2022/12/22 07:50:31;;;;;;;5.67;1.20;;;;;;;10.04;100.00;98914.25;5003997;28;20171;-64
2022/12/22 07:52:59;;;;;;;2.40;0.90;;;;;;;9.98;100.00;98924.00;5026198;28;20570;-66
2022/12/22 07:55:26;;;;;;;1.13;1.00;;;;;;;9.96;100.00;98928.47;5011589;28;20187;-66
2022/12/22 07:57:53;;;;;;;3.33;0.80;;;;;;;10.05;100.00;98932.13;5029584;28;20186;-65
2022/12/22 08:00:19;;;;;;;1.70;0.83;;;;;;;10.06;100.00;98931.19;5010870;28;20182;-66
2022/12/22 08:02:52;;;;;;;2.10;0.90;;;;;;;10.18;100.00;98935.47;5022366;28;20237;-66
2022/12/22 08:05:18;;;;;;;2.90;0.87;;;;;;;10.25;100.00;98929.88;5014738;28;20202;-65
2022/12/22 08:07:44;;;;;;;2.73;0.87;;;;;;;10.21;100.00;98919.00;5014314;28;20704;-65
2022/12/22 08:10:10;;;;;;;2.43;1.00;;;;;;;10.19;100.00;98923.41;5005040;28;20665;-65
2022/12/22 08:12:36;;;;;;;7.60;2.00;;;;;;;10.28;100.00;98924.50;5006675;28;20201;-65
2022/12/22 08:15:01;;;;;;;4.10;1.50;;;;;;;10.21;100.00;98928.44;5012671;28;20553;-65
2022/12/22 08:17:28;;;;;;;9.33;2.53;;;;;;;10.13;100.00;98927.25;5017542;28;20756;-66
2022/12/22 08:19:54;;;;;;;4.43;2.00;;;;;;;10.15;100.00;98922.81;5013707;28;20183;-64
2022/12/22 08:22:22;;;;;;;3.60;1.37;;;;;;;10.10;100.00;98924.91;5019667;28;20247;-57
2022/12/22 08:24:49;;;;;;;2.87;1.20;;;;;;;10.25;100.00;98917.84;5011418;28;20224;-59
2022/12/22 08:27:17;;;;;;;4.70;1.83;;;;;;;10.36;100.00;98908.53;5010146;28;20189;-59
2022/12/22 08:29:47;;;;;;;5.13;1.33;;;;;;;10.37;100.00;98917.91;5014171;28;20186;-78
2022/12/22 08:32:13;;;;;;;4.40;1.53;;;;;;;10.29;100.00;98923.56;5003636;28;20226;-78
2022/12/22 08:34:38;;;;;;;5.30;1.73;;;;;;;10.29;100.00;98923.56;5012783;28;20175;-78
2022/12/22 08:37:09;;;;;;;4.43;1.87;;;;;;;10.45;100.00;98931.84;5012203;28;20183;-78
2022/12/22 08:39:38;;;;;;;2.93;1.43;;;;;;;10.44;100.00;98937.09;5029579;28;20225;-79
2022/12/22 08:42:05;;;;;;;4.73;1.50;;;;;;;10.44;100.00;98932.78;5021448;28;20234;-78
2022/12/22 08:44:31;;;;;;;4.80;1.53;;;;;;;10.48;100.00;98941.06;5011456;28;20186;-80
2022/12/22 08:46:58;;;;;;;6.20;1.83;;;;;;;10.32;100.00;98942.16;5013670;28;20191;-78
2022/12/22 08:49:25;;;;;;;4.97;1.77;;;;;;;10.42;100.00;98949.22;5014107;28;20179;-77
2022/12/22 08:51:52;;;;;;;8.87;2.23;;;;;;;10.58;100.00;98949.78;5017202;28;20272;-78
2022/12/22 08:54:18;;;;;;;7.87;2.20;;;;;;;10.41;100.00;98952.75;5015135;28;20178;-78
2022/12/22 08:56:44;;;;;;;9.90;2.33;;;;;;;10.45;100.00;98952.41;5006211;28;20201;-78
2022/12/22 08:59:10;;;;;;;7.30;2.20;;;;;;;10.48;100.00;98954.78;5007382;28;20207;-77
2022/12/22 09:01:38;;;;;;;8.50;1.80;;;;;;;10.36;100.00;98952.22;5002818;28;20693;-78
2022/12/22 09:04:05;;;;;;;6.77;2.23;;;;;;;10.24;100.00;98959.88;5005221;28;20191;-76
2022/12/22 09:06:31;;;;;;;6.93;2.47;;;;;;;10.23;100.00;98954.84;5012292;28;20191;-77
2022/12/22 09:09:00;;;;;;;9.80;2.73;;;;;;;10.23;100.00;98957.44;5025524;28;20681;-77
2022/12/22 09:11:27;;;;;;;7.60;2.87;;;;;;;10.26;100.00;98962.38;5011918;28;20559;-75
2022/12/22 09:13:55;;;;;;;8.67;2.50;;;;;;;10.28;100.00;98960.50;5010676;28;20302;-75
2022/12/22 09:16:22;;;;;;;9.47;2.60;;;;;;;10.27;100.00;98966.56;5012667;28;20193;-75
2022/12/22 09:18:47;;;;;;;8.20;2.00;;;;;;;10.22;100.00;98974.63;5011420;28;20197;-75
2022/12/22 09:21:13;;;;;;;7.37;2.00;;;;;;;10.15;100.00;98970.84;5011596;28;20570;-76
2022/12/22 09:23:39;;;;;;;6.10;1.83;;;;;;;10.06;100.00;98968.91;5018778;28;20625;-77
2022/12/22 09:26:09;;;;;;;11.33;2.13;;;;;;;9.95;100.00;98967.91;5011796;28;20186;-77
2022/12/22 09:28:35;;;;;;;4.80;1.87;;;;;;;9.88;100.00;98982.09;5027901;28;20207;-74
2022/12/22 09:31:01;;;;;;;5.50;1.80;;;;;;;9.82;100.00;98973.09;4998060;28;20253;-75
2022/12/22 09:33:26;;;;;;;5.30;2.10;;;;;;;9.82;100.00;98988.50;5017781;28;20639;-76
2022/12/22 09:35:52;;;;;;;8.60;2.33;;;;;;;9.78;100.00;98991.38;5012414;28;20187;-76
2022/12/22 09:38:17;;;;;;;6.00;1.93;;;;;;;9.91;100.00;99006.75;5010997;28;20982;-75
2022/12/22 09:40:43;;;;;;;6.00;1.63;;;;;;;9.89;100.00;99018.91;5007228;28;20237;-76
2022/12/22 09:43:15;;;;;;;6.60;1.70;;;;;;;9.76;100.00;99017.19;5008487;28;20565;-73
2022/12/22 09:45:41;;;;;;;6.47;1.77;;;;;;;9.80;100.00;99010.09;5010847;28;20182;-73
2022/12/22 09:48:11;;;;;;;8.33;1.90;;;;;;;9.71;100.00;99016.66;5007872;28;20181;-75
2022/12/22 09:50:38;;;;;;;9.73;1.90;;;;;;;9.85;100.00;99020.88;5007032;28;20226;-75
2022/12/22 09:53:07;;;;;;;4.80;1.97;;;;;;;9.83;100.00;99017.56;5024556;28;20230;-75
2022/12/22 09:55:38;;;;;;;6.47;2.20;;;;;;;9.94;100.00;99015.06;5015779;28;20182;-77
2022/12/22 09:58:25;;;;;;;3.77;1.63;;;;;;;9.88;100.00;99030.09;5010871;28;20193;-76
2022/12/22 10:01:01;;;;;;;6.43;2.00;;;;;;;9.87;100.00;99039.53;5001075;28;20265;-77
2022/12/22 10:03:33;;;;;;;6.27;2.70;;;;;;;10.08;100.00;99039.81;5002659;28;20179;-74
2022/12/22 10:06:14;;;;;;;6.83;1.70;;;;;;;10.00;100.00;99044.66;5010929;28;20178;-75
2022/12/22 10:08:40;;;;;;;5.17;2.40;;;;;;;10.22;100.00;99044.00;5016870;28;20310;-75
2022/12/22 10:11:11;;;;;;;6.30;2.80;;;;;;;10.20;100.00;99045.84;5005930;28;20323;-72
2022/12/22 10:13:36;;;;;;;6.37;2.07;;;;;;;10.07;100.00;99051.03;5008822;28;20294;-87
2022/12/22 10:16:18;;;;;;;5.57;2.63;;;;;;;9.90;100.00;99054.75;5022142;28;20214;-81
2022/12/22 10:19:14;;;;;;;6.20;2.70;;;;;;;9.91;100.00;99060.69;5004783;28;20179;-82
2022/12/22 10:21:40;;;;;;;8.07;2.03;;;;;;;9.98;100.00;99069.63;4979847;28;20223;-83
2022/12/22 10:24:17;;;;;;;3.47;1.30;;;;;;;10.08;100.00;99064.69;4989556;28;20195;-81
2022/12/22 10:26:44;;;;;;;4.47;1.37;;;;;;;10.20;100.00;99063.84;4979141;28;20195;-82
2022/12/22 10:29:12;;;;;;;5.90;1.50;;;;;;;10.22;100.00;99067.13;4976701;28;20171;-81
2022/12/22 10:31:56;;;;;;;3.97;1.10;;;;;;;10.33;100.00;99068.94;4982771;28;20231;-83
2022/12/22 10:34:21;;;;;;;2.27;1.10;;;;;;;10.33;100.00;99074.06;4974721;28;20203;-78
2022/12/22 10:36:51;;;;;;;3.07;0.97;;;;;;;10.51;100.00;99074.56;4973123;28;20260;-83
2022/12/22 10:39:26;;;;;;;1.07;0.70;;;;;;;10.66;100.00;99080.38;4990919;28;20191;-81
2022/12/22 10:41:54;;;;;;;1.90;1.00;;;;;;;10.85;100.00;99079.88;4966831;28;20698;-79
2022/12/22 10:44:23;;;;;;;1.17;0.70;;;;;;;10.91;100.00;99086.34;4987850;28;20222;-85
2022/12/22 10:46:52;;;;;;;1.53;1.10;;;;;;;11.01;100.00;99092.44;4972718;28;20195;-79
2022/12/22 10:49:24;;;;;;;2.50;0.90;;;;;;;10.84;100.00;99090.28;4989401;28;20302;-78
2022/12/22 10:52:12;;;;;;;1.90;1.10;;;;;;;10.74;100.00;99096.09;4959990;28;20236;-78
2022/12/22 10:54:41;;;;;;;1.93;0.63;;;;;;;10.74;100.00;99102.97;4976059;28;20184;-83
2022/12/22 10:57:12;;;;;;;2.63;0.80;;;;;;;10.75;100.00;99102.03;4991694;28;20179;-80
2022/12/22 10:59:51;;;;;;;2.83;1.00;;;;;;;10.69;100.00;99107.63;5009685;28;20246;-81
2022/12/22 11:02:19;;;;;;;1.10;0.63;;;;;;;10.72;100.00;99112.56;5000444;28;20230;-81
2022/12/22 11:04:45;;;;;;;1.73;0.70;;;;;;;10.71;100.00;99122.00;5009961;28;20191;-76
2022/12/22 11:07:11;;;;;;;0.57;0.57;;;;;;;10.95;100.00;99123.78;5009789;28;20187;-77
2022/12/22 11:09:36;;;;;;;4.07;0.83;;;;;;;10.96;100.00;99112.56;5030117;28;20262;-84
2022/12/22 11:12:07;;;;;;;2.00;0.80;;;;;;;10.98;100.00;99126.94;5001072;28;20634;-80
2022/12/22 11:15:10;;;;;;;0.60;0.50;;;;;;;10.98;100.00;99126.94;5028143;28;20273;-78
2022/12/22 11:17:57;;;;;;;1.50;0.63;;;;;;;11.01;100.00;99136.19;5013471;28;20181;-80
2022/12/22 11:20:59;;;;;;;2.60;0.60;;;;;;;10.97;100.00;99140.75;5006002;28;20197;-81
2022/12/22 11:23:42;;;;;;;0.50;0.50;;;;;;;10.92;100.00;99144.59;5005214;28;20187;-76
2022/12/22 11:26:20;;;;;;;2.40;0.70;;;;;;;10.86;100.00;99160.47;5012534;28;20194;-80
2022/12/22 11:29:02;;;;;;;1.03;0.63;;;;;;;10.90;100.00;99161.88;5014887;28;20174;-76
2022/12/22 11:31:52;;;;;;;1.87;0.70;;;;;;;10.79;100.00;99153.19;5006483;28;20222;-77
2022/12/22 11:34:59;;;;;;;1.90;0.63;;;;;;;10.62;100.00;99166.41;5010818;28;20183;-76
2022/12/22 11:37:42;;;;;;;1.53;0.90;;;;;;;10.56;100.00;99170.22;5011652;28;20211;-79
2022/12/22 11:40:40;;;;;;;1.13;0.60;;;;;;;10.60;100.00;99178.53;5007843;28;20179;-79
2022/12/22 11:43:35;;;;;;;1.13;0.70;;;;;;;10.53;100.00;99179.88;5019377;28;20249;-79
2022/12/22 11:46:19;;;;;;;1.80;0.97;;;;;;;10.71;100.00;99190.66;5014499;28;20193;-81
2022/12/22 11:49:03;;;;;;;1.30;0.73;;;;;;;10.71;100.00;99198.38;5010999;28;20560;-81
2022/12/22 11:52:03;;;;;;;0.80;0.80;;;;;;;10.91;100.00;99202.13;5019782;28;20246;-73
2022/12/22 11:55:00;;;;;;;1.80;0.70;;;;;;;11.02;100.00;99209.09;5006631;28;20194;-78
2022/12/22 11:57:37;;;;;;;1.03;0.60;;;;;;;10.84;100.00;99217.19;4993926;28;20176;-75
2022/12/22 12:00:13;;;;;;;3.30;2.50;;;;;;;10.86;100.00;99217.88;5004239;28;20226;-78
2022/12/22 12:03:16;;;;;;;1.03;0.73;;;;;;;10.97;100.00;99223.09;5001748;28;20233;-81
2022/12/22 12:06:01;;;;;;;0.70;0.60;;;;;;;10.94;100.00;99223.31;5013051;28;20171;-83
2022/12/22 12:08:56;;;;;;;0.63;0.60;;;;;;;10.84;100.00;99224.06;5011963;28;20230;-79
2022/12/22 12:11:33;;;;;;;1.33;0.73;;;;;;;10.89;100.00;99232.25;5002100;28;20237;-83
2022/12/22 12:14:12;;;;;;;1.20;0.80;;;;;;;10.72;100.00;99238.59;5008956;28;20202;-83
2022/12/22 12:16:43;;;;;;;1.30;0.67;;;;;;;10.68;100.00;99243.13;4998149;28;20782;-81
2022/12/22 12:19:49;;;;;;;0.83;0.50;;;;;;;10.39;100.00;99248.50;5013847;28;20208;-81
2022/12/22 12:22:31;;;;;;;1.30;0.53;;;;;;;10.31;100.00;99251.56;5014150;28;20309;-81
2022/12/22 12:25:01;;;;;;;1.20;0.53;;;;;;;10.36;100.00;99258.13;5004773;28;20182;-80
2022/12/22 12:27:45;;;;;;;1.03;0.43;;;;;;;10.54;100.00;99261.25;5010735;28;20258;-80
2022/12/22 12:30:16;;;;;;;0.60;0.40;;;;;;;10.59;100.00;99269.47;5003797;28;20186;-80
2022/12/22 12:32:49;;;;;;;0.50;0.30;;;;;;;10.73;100.00;99271.94;5012740;28;20198;-78
2022/12/22 12:35:33;;;;;;;0.60;0.60;;;;;;;10.60;100.00;99278.81;5011420;28;20309;-79
2022/12/22 12:38:06;;;;;;;1.83;0.60;;;;;;;10.57;100.00;99281.63;5012095;28;20182;-80
2022/12/22 12:40:41;;;;;;;1.30;0.50;;;;;;;10.60;100.00;99278.81;5007524;28;20275;-79
2022/12/22 12:43:11;;;;;;;0.60;0.50;;;;;;;10.68;100.00;99288.59;5020115;28;20178;-79
2022/12/22 12:45:40;;;;;;;0.30;0.30;;;;;;;10.78;100.00;99292.19;5014091;28;20174;-80
2022/12/22 12:48:24;;;;;;;0.47;0.43;;;;;;;10.52;100.00;99304.22;5011089;28;20637;-70
2022/12/22 12:50:54;;;;;;;3.17;0.53;;;;;;;10.51;100.00;99307.75;5001433;28;20226;-80
2022/12/22 12:53:24;;;;;;;0.40;0.40;;;;;;;10.51;100.00;99311.13;5018891;28;20221;-83
2022/12/22 12:55:50;;;;;;;0.50;0.50;;;;;;;10.64;100.00;99316.25;5009542;28;20183;-71
2022/12/22 12:58:34;;;;;;;2.37;0.60;;;;;;;10.68;100.00;99311.75;5009560;28;20206;-79
2022/12/22 13:01:01;;;;;;;0.87;0.43;;;;;;;10.60;100.00;99319.97;4999178;28;20219;-82
2022/12/22 13:03:26;;;;;;;0.57;0.57;;;;;;;10.60;100.00;99323.34;5002490;28;20217;-82
2022/12/22 13:05:57;;;;;;;0.60;0.60;;;;;;;10.49;100.00;99333.53;5010271;28;20210;-80
2022/12/22 13:08:42;;;;;;;0.57;0.57;;;;;;;10.38;100.00;99331.72;5011044;28;20254;-81
2022/12/22 13:11:13;;;;;;;1.80;0.70;;;;;;;10.49;100.00;99334.38;5006620;28;20214;-80
2022/12/22 13:13:39;;;;;;;1.50;0.70;;;;;;;10.37;100.00;99337.75;5003689;28;20203;-78
2022/12/22 13:16:04;;;;;;;1.03;0.70;;;;;;;10.59;100.00;99332.03;5010308;28;20175;-81
2022/12/22 13:18:32;;;;;;;0.70;0.70;;;;;;;10.61;100.00;99335.31;5011504;28;20183;-78
2022/12/22 13:21:02;;;;;;;1.67;0.60;;;;;;;10.59;100.00;99344.03;4991491;28;20322;-79
2022/12/22 13:23:34;;;;;;;0.77;0.77;;;;;;;10.61;100.00;99352.50;5004763;28;20194;-77
2022/12/22 13:26:05;;;;;;;3.00;1.17;;;;;;;10.51;100.00;99365.13;5009925;28;20272;-71
2022/12/22 13:28:34;;;;;;;1.40;0.80;;;;;;;10.36;100.00;99369.53;5011877;28;20281;-75
2022/12/22 13:31:15;;;;;;;1.73;1.20;;;;;;;10.22;100.00;99370.41;5007732;28;20225;-77
2022/12/22 13:33:41;;;;;;;1.80;0.90;;;;;;;10.20;100.00;99376.56;5010166;28;20297;-76
2022/12/22 13:36:19;;;;;;;2.60;0.80;;;;;;;10.11;100.00;99373.66;5009415;28;20221;-81
2022/12/22 13:38:45;;;;;;;1.03;0.70;;;;;;;9.91;100.00;99377.50;5011082;28;20241;-84
2022/12/22 13:41:16;;;;;;;1.30;0.60;;;;;;;9.83;100.00;99366.88;5011729;28;20236;-85
2022/12/22 13:43:46;;;;;;;3.50;0.67;;;;;;;9.95;100.00;99373.00;5010981;28;20194;-76
2022/12/22 13:46:11;;;;;;;0.67;0.53;;;;;;;9.84;100.00;99374.50;5009313;28;20190;-76
2022/12/22 13:48:41;;;;;;;1.10;0.63;;;;;;;9.84;100.00;99377.06;5007783;28;20290;-77
2022/12/22 13:51:25;;;;;;;3.33;2.23;;;;;;;9.81;100.00;99376.41;5007684;28;20233;-77
2022/12/22 13:53:55;;;;;;;2.10;1.73;;;;;;;9.80;100.00;99367.91;5021217;28;20225;-78
2022/12/22 13:56:24;;;;;;;2.60;1.10;;;;;;;9.91;100.00;99372.38;5010512;28;20179;-77
2022/12/22 13:58:57;;;;;;;0.70;0.70;;;;;;;9.99;100.00;99361.59;5023758;28;20199;-81
2022/12/22 14:01:23;;;;;;;1.23;1.00;;;;;;;10.02;100.00;99367.38;4995880;28;20320;-80
2022/12/22 14:03:57;;;;;;;0.93;0.93;;;;;;;9.94;100.00;99369.59;5003846;28;20193;-81
2022/12/22 14:06:34;;;;;;;0.97;0.90;;;;;;;9.97;100.00;99377.13;5008711;28;20265;-82
2022/12/22 14:09:19;;;;;;;1.30;1.20;;;;;;;9.90;100.00;99377.59;5010363;28;20310;-82
2022/12/22 14:11:49;;;;;;;1.17;0.97;;;;;;;9.91;100.00;99380.09;4984744;28;20682;-78
2022/12/22 14:14:24;;;;;;;1.30;0.70;;;;;;;9.86;100.00;99376.97;5009540;28;20206;-77
2022/12/22 14:16:51;;;;;;;0.63;0.60;;;;;;;9.89;100.00;99383.66;5006865;28;20179;-78
2022/12/22 14:19:19;;;;;;;0.80;0.80;;;;;;;9.69;100.00;99386.56;5007965;28;20187;-77
2022/12/22 14:21:47;;;;;;;1.83;0.87;;;;;;;9.78;100.00;99385.16;5001087;28;20233;-77
2022/12/22 14:24:20;;;;;;;1.30;1.20;;;;;;;9.73;100.00;99388.94;5002213;28;20257;-76
2022/12/22 14:26:46;;;;;;;1.03;1.03;;;;;;;9.95;100.00;99391.00;5000808;28;20190;-77
2022/12/22 14:29:17;;;;;;;0.60;0.60;;;;;;;9.81;100.00;99392.69;5009482;28;20178;-77
2022/12/22 14:31:57;;;;;;;0.70;0.70;;;;;;;9.77;100.00;99388.63;5001422;28;20309;-83
2022/12/22 14:34:33;;;;;;;0.73;0.73;;;;;;;9.69;100.00;99396.00;5022633;28;20186;-69
2022/12/22 14:37:01;;;;;;;1.00;0.90;;;;;;;9.73;100.00;99397.47;5009764;28;20273;-76
2022/12/22 14:39:30;;;;;;;1.33;0.87;;;;;;;9.82;100.00;99406.34;5005990;28;20197;-76
2022/12/22 14:41:58;;;;;;;0.77;0.77;;;;;;;9.61;100.00;99395.66;5014490;28;20689;-80
2022/12/22 14:44:44;;;;;;;1.00;0.90;;;;;;;9.65;100.00;99403.06;5009796;28;20241;-76
2022/12/22 14:47:16;;;;;;;6.80;1.13;;;;;;;9.70;100.00;99407.94;5010274;28;20257;-75
2022/12/22 14:49:49;;;;;;;2.47;1.67;;;;;;;9.74;100.00;99406.00;5004562;28;20194;-77
2022/12/22 14:52:20;;;;;;;1.10;0.87;;;;;;;9.75;100.00;99412.75;5002009;28;20735;-77
2022/12/22 14:54:48;;;;;;;0.73;0.70;;;;;;;9.72;100.00;99407.84;5006445;28;20195;-75
2022/12/22 14:57:20;;;;;;;1.00;0.90;;;;;;;9.77;100.00;99406.59;5022286;28;20190;-76
2022/12/22 15:00:08;;;;;;;0.80;0.80;;;;;;;9.73;100.00;99405.16;5007680;28;20194;-78
2022/12/22 15:02:47;;;;;;;1.43;0.90;;;;;;;9.86;100.00;99407.81;4983375;28;20263;-83
2022/12/22 15:05:26;;;;;;;1.50;1.17;;;;;;;9.67;100.00;99414.09;5011457;28;20196;-84
2022/12/22 15:07:55;;;;;;;1.00;1.00;;;;;;;9.66;100.00;99411.59;5009039;28;20222;-82
2022/12/22 15:10:23;;;;;;;1.20;1.10;;;;;;;9.83;100.00;99419.06;5018159;28;20187;-76
2022/12/22 15:12:57;;;;;;;2.23;1.60;;;;;;;9.79;100.00;99417.63;5001255;28;20217;-77
2022/12/22 15:15:22;;;;;;;2.57;1.00;;;;;;;9.81;100.00;99420.09;5008533;28;20199;-77
2022/12/22 15:17:50;;;;;;;1.20;1.10;;;;;;;9.79;100.00;99415.06;5009337;28;20688;-78
2022/12/22 15:20:25;;;;;;;1.03;1.00;;;;;;;9.71;100.00;99419.03;5003406;28;20191;-70
2022/12/22 15:22:51;;;;;;;1.40;1.30;;;;;;;9.68;100.00;99427.75;5008896;28;20213;-77